sensor_id;sensor_type;location;lat;lon;timestamp;temperature;humidity
23783;DHT22;12071;50.850;4.446;2023-11-21T00:01:18;11.50;1.00
23783;DHT22;12071;50.850;4.446;2023-11-21T00:03:43;11.70;1.00
23783;DHT22;12071;50.850;4.446;2023-11-21T00:06:09;11.60;1.00
23783;DHT22;12071;50.850;4.446;2023-11-21T00:08:36;11.60;1.00
23783;DHT22;12071;50.850;4.446;2023-11-21T00:11:01;11.50;1.00
23783;DHT22;12071;50.850;4.446;2023-11-21T00:13:28;11.40;1.00
23783;DHT22;12071;50.850;4.446;2023-11-21T00:15:53;11.10;1.00
23783;DHT22;12071;50.850;4.446;2023-11-21T00:18:19;11.10;1.00
23783;DHT22;12071;50.850;4.446;2023-11-21T00:20:44;11.20;1.00
23783;DHT22;12071;50.850;4.446;2023-11-21T00:23:10;11.10;1.00
23783;DHT22;12071;50.850;4.446;2023-11-21T00:25:36;11.20;1.00
23783;DHT22;12071;50.850;4.446;2023-11-21T00:28:01;11.30;1.00
23783;DHT22;12071;50.850;4.446;2023-11-21T00:30:28;11.30;1.00
23783;DHT22;12071;50.850;4.446;2023-11-21T00:32:55;11.10;1.00
23783;DHT22;12071;50.850;4.446;2023-11-21T00:35:20;11.00;1.00
23783;DHT22;12071;50.850;4.446;2023-11-21T00:37:46;11.00;1.00
23783;DHT22;12071;50.850;4.446;2023-11-21T00:40:12;11.10;1.00
23783;DHT22;12071;50.850;4.446;2023-11-21T00:42:39;11.20;1.00
23783;DHT22;12071;50.850;4.446;2023-11-21T00:45:05;11.20;1.00
23783;DHT22;12071;50.850;4.446;2023-11-21T00:47:31;11.20;1.00
23783;DHT22;12071;50.850;4.446;2023-11-21T00:49:57;11.10;1.00
23783;DHT22;12071;50.850;4.446;2023-11-21T00:52:22;11.00;1.00
23783;DHT22;12071;50.850;4.446;2023-11-21T00:54:48;11.10;1.00
23783;DHT22;12071;50.850;4.446;2023-11-21T00:57:15;11.40;1.00
23783;DHT22;12071;50.850;4.446;2023-11-21T00:59:40;11.10;1.00
23783;DHT22;12071;50.850;4.446;2023-11-21T01:02:06;11.10;1.00
23783;DHT22;12071;50.850;4.446;2023-11-21T01:04:35;10.90;1.00
23783;DHT22;12071;50.850;4.446;2023-11-21T01:07:01;10.80;1.00
23783;DHT22;12071;50.850;4.446;2023-11-21T01:09:26;11.10;1.00
23783;DHT22;12071;50.850;4.446;2023-11-21T01:11:53;11.20;1.00
23783;DHT22;12071;50.850;4.446;2023-11-21T01:14:19;11.20;1.00
23783;DHT22;12071;50.850;4.446;2023-11-21T01:16:44;11.10;1.00
23783;DHT22;12071;50.850;4.446;2023-11-21T01:19:10;10.90;1.00
23783;DHT22;12071;50.850;4.446;2023-11-21T01:21:36;10.70;1.00
23783;DHT22;12071;50.850;4.446;2023-11-21T01:24:02;10.80;1.00
23783;DHT22;12071;50.850;4.446;2023-11-21T01:26:28;11.10;1.00
23783;DHT22;12071;50.850;4.446;2023-11-21T01:28:53;11.20;1.00
23783;DHT22;12071;50.850;4.446;2023-11-21T01:31:20;10.90;1.00
23783;DHT22;12071;50.850;4.446;2023-11-21T01:33:46;10.80;1.00
23783;DHT22;12071;50.850;4.446;2023-11-21T01:36:11;10.70;1.00
23783;DHT22;12071;50.850;4.446;2023-11-21T01:38:37;10.70;1.00
23783;DHT22;12071;50.850;4.446;2023-11-21T01:41:03;10.70;1.00
23783;DHT22;12071;50.850;4.446;2023-11-21T01:43:30;10.80;1.00
23783;DHT22;12071;50.850;4.446;2023-11-21T01:45:58;11.00;1.00
23783;DHT22;12071;50.850;4.446;2023-11-21T01:48:24;10.80;1.00
23783;DHT22;12071;50.850;4.446;2023-11-21T01:50:51;10.60;1.00
23783;DHT22;12071;50.850;4.446;2023-11-21T01:53:17;10.70;1.00
23783;DHT22;12071;50.850;4.446;2023-11-21T01:55:45;10.60;1.00
23783;DHT22;12071;50.850;4.446;2023-11-21T01:58:11;10.90;1.00
23783;DHT22;12071;50.850;4.446;2023-11-21T02:00:38;10.70;1.00
23783;DHT22;12071;50.850;4.446;2023-11-21T02:03:05;10.80;1.00
23783;DHT22;12071;50.850;4.446;2023-11-21T02:05:32;11.00;1.00
23783;DHT22;12071;50.850;4.446;2023-11-21T02:07:58;10.80;1.00
23783;DHT22;12071;50.850;4.446;2023-11-21T02:10:24;10.80;1.00
23783;DHT22;12071;50.850;4.446;2023-11-21T02:12:50;10.60;1.00
23783;DHT22;12071;50.850;4.446;2023-11-21T02:15:16;10.80;1.00
23783;DHT22;12071;50.850;4.446;2023-11-21T02:17:46;10.80;1.00
23783;DHT22;12071;50.850;4.446;2023-11-21T02:20:13;10.80;1.00
23783;DHT22;12071;50.850;4.446;2023-11-21T02:22:44;10.80;1.00
23783;DHT22;12071;50.850;4.446;2023-11-21T02:25:10;11.40;1.00
23783;DHT22;12071;50.850;4.446;2023-11-21T02:27:36;11.10;1.00
23783;DHT22;12071;50.850;4.446;2023-11-21T02:30:03;11.20;1.00
23783;DHT22;12071;50.850;4.446;2023-11-21T02:32:30;11.60;1.00
23783;DHT22;12071;50.850;4.446;2023-11-21T02:34:57;11.50;1.00
23783;DHT22;12071;50.850;4.446;2023-11-21T02:37:26;11.30;1.00
23783;DHT22;12071;50.850;4.446;2023-11-21T02:39:52;11.30;1.00
23783;DHT22;12071;50.850;4.446;2023-11-21T02:42:18;11.10;1.00
23783;DHT22;12071;50.850;4.446;2023-11-21T02:44:44;11.00;1.00
23783;DHT22;12071;50.850;4.446;2023-11-21T02:47:10;10.90;1.00
23783;DHT22;12071;50.850;4.446;2023-11-21T02:49:35;10.60;1.00
23783;DHT22;12071;50.850;4.446;2023-11-21T02:52:01;10.50;1.00
23783;DHT22;12071;50.850;4.446;2023-11-21T02:54:27;10.70;1.00
23783;DHT22;12071;50.850;4.446;2023-11-21T02:56:53;10.90;1.00
23783;DHT22;12071;50.850;4.446;2023-11-21T02:59:18;11.20;1.00
23783;DHT22;12071;50.850;4.446;2023-11-21T03:01:45;11.20;1.00
23783;DHT22;12071;50.850;4.446;2023-11-21T03:04:11;11.20;1.00
23783;DHT22;12071;50.850;4.446;2023-11-21T03:06:43;11.30;1.00
23783;DHT22;12071;50.850;4.446;2023-11-21T03:09:09;11.10;1.00
23783;DHT22;12071;50.850;4.446;2023-11-21T03:11:35;10.70;1.00
23783;DHT22;12071;50.850;4.446;2023-11-21T03:14:00;10.60;1.00
23783;DHT22;12071;50.850;4.446;2023-11-21T03:16:26;10.70;1.00
23783;DHT22;12071;50.850;4.446;2023-11-21T03:18:52;10.80;1.00
23783;DHT22;12071;50.850;4.446;2023-11-21T03:21:17;10.80;1.00
23783;DHT22;12071;50.850;4.446;2023-11-21T03:23:43;10.90;1.00
23783;DHT22;12071;50.850;4.446;2023-11-21T03:26:12;10.90;1.00
23783;DHT22;12071;50.850;4.446;2023-11-21T03:28:38;11.00;1.00
23783;DHT22;12071;50.850;4.446;2023-11-21T03:31:05;11.00;1.00
23783;DHT22;12071;50.850;4.446;2023-11-21T03:33:32;11.10;1.00
23783;DHT22;12071;50.850;4.446;2023-11-21T03:35:57;11.30;1.00
23783;DHT22;12071;50.850;4.446;2023-11-21T03:38:23;11.30;1.00
23783;DHT22;12071;50.850;4.446;2023-11-21T03:40:49;11.70;1.00
23783;DHT22;12071;50.850;4.446;2023-11-21T03:43:16;11.70;1.00
23783;DHT22;12071;50.850;4.446;2023-11-21T03:45:44;11.50;1.00
23783;DHT22;12071;50.850;4.446;2023-11-21T03:48:12;11.30;1.00
23783;DHT22;12071;50.850;4.446;2023-11-21T03:50:38;11.50;1.00
23783;DHT22;12071;50.850;4.446;2023-11-21T03:53:04;11.80;1.00
23783;DHT22;12071;50.850;4.446;2023-11-21T03:55:30;11.60;1.00
23783;DHT22;12071;50.850;4.446;2023-11-21T03:57:58;11.50;1.00
23783;DHT22;12071;50.850;4.446;2023-11-21T04:00:24;11.30;1.00
23783;DHT22;12071;50.850;4.446;2023-11-21T04:02:50;11.40;1.00
23783;DHT22;12071;50.850;4.446;2023-11-21T04:05:17;11.50;1.00
23783;DHT22;12071;50.850;4.446;2023-11-21T04:07:43;11.50;1.00
23783;DHT22;12071;50.850;4.446;2023-11-21T04:10:09;11.40;1.00
23783;DHT22;12071;50.850;4.446;2023-11-21T04:12:36;11.10;1.00
23783;DHT22;12071;50.850;4.446;2023-11-21T04:15:02;11.20;1.00
23783;DHT22;12071;50.850;4.446;2023-11-21T04:17:28;11.30;1.00
23783;DHT22;12071;50.850;4.446;2023-11-21T04:19:54;11.40;1.00
23783;DHT22;12071;50.850;4.446;2023-11-21T04:22:20;11.50;1.00
23783;DHT22;12071;50.850;4.446;2023-11-21T04:24:45;11.50;1.00
23783;DHT22;12071;50.850;4.446;2023-11-21T04:27:11;11.40;1.00
23783;DHT22;12071;50.850;4.446;2023-11-21T04:29:36;11.30;1.00
23783;DHT22;12071;50.850;4.446;2023-11-21T04:32:02;11.60;1.00
23783;DHT22;12071;50.850;4.446;2023-11-21T04:34:28;11.60;1.00
23783;DHT22;12071;50.850;4.446;2023-11-21T04:36:56;11.40;1.00
23783;DHT22;12071;50.850;4.446;2023-11-21T04:39:22;11.20;1.00
23783;DHT22;12071;50.850;4.446;2023-11-21T04:41:48;11.40;1.00
23783;DHT22;12071;50.850;4.446;2023-11-21T04:44:13;11.30;1.00
23783;DHT22;12071;50.850;4.446;2023-11-21T04:46:39;11.40;1.00
23783;DHT22;12071;50.850;4.446;2023-11-21T04:49:05;11.70;1.00
23783;DHT22;12071;50.850;4.446;2023-11-21T04:51:31;11.80;1.00
23783;DHT22;12071;50.850;4.446;2023-11-21T04:53:57;11.60;1.00
23783;DHT22;12071;50.850;4.446;2023-11-21T04:56:23;11.80;1.00
23783;DHT22;12071;50.850;4.446;2023-11-21T04:58:50;12.00;1.00
23783;DHT22;12071;50.850;4.446;2023-11-21T05:01:15;12.10;1.00
23783;DHT22;12071;50.850;4.446;2023-11-21T05:03:41;11.70;1.00
23783;DHT22;12071;50.850;4.446;2023-11-21T05:06:09;11.40;1.00
23783;DHT22;12071;50.850;4.446;2023-11-21T05:08:35;11.40;1.00
23783;DHT22;12071;50.850;4.446;2023-11-21T05:11:02;11.50;1.00
23783;DHT22;12071;50.850;4.446;2023-11-21T05:13:28;11.50;1.00
23783;DHT22;12071;50.850;4.446;2023-11-21T05:15:56;11.20;1.00
23783;DHT22;12071;50.850;4.446;2023-11-21T05:18:24;11.00;1.00
23783;DHT22;12071;50.850;4.446;2023-11-21T05:20:52;11.00;1.00
23783;DHT22;12071;50.850;4.446;2023-11-21T05:23:19;11.10;1.00
23783;DHT22;12071;50.850;4.446;2023-11-21T05:25:45;11.10;1.00
23783;DHT22;12071;50.850;4.446;2023-11-21T05:28:12;11.10;1.00
23783;DHT22;12071;50.850;4.446;2023-11-21T05:30:37;10.90;1.00
23783;DHT22;12071;50.850;4.446;2023-11-21T05:33:05;10.90;1.00
23783;DHT22;12071;50.850;4.446;2023-11-21T05:35:31;11.00;1.00
23783;DHT22;12071;50.850;4.446;2023-11-21T05:37:57;11.20;1.00
23783;DHT22;12071;50.850;4.446;2023-11-21T05:40:23;11.30;1.00
23783;DHT22;12071;50.850;4.446;2023-11-21T05:42:51;11.40;1.00
23783;DHT22;12071;50.850;4.446;2023-11-21T05:45:17;11.40;1.00
23783;DHT22;12071;50.850;4.446;2023-11-21T05:47:45;11.40;1.00
23783;DHT22;12071;50.850;4.446;2023-11-21T05:50:15;11.50;1.00
23783;DHT22;12071;50.850;4.446;2023-11-21T05:52:42;11.20;1.00
23783;DHT22;12071;50.850;4.446;2023-11-21T05:55:08;11.10;1.00
23783;DHT22;12071;50.850;4.446;2023-11-21T05:57:35;11.20;1.00
23783;DHT22;12071;50.850;4.446;2023-11-21T06:00:10;11.10;1.00
23783;DHT22;12071;50.850;4.446;2023-11-21T06:02:56;11.00;1.00
23783;DHT22;12071;50.850;4.446;2023-11-21T06:05:24;10.90;1.00
23783;DHT22;12071;50.850;4.446;2023-11-21T06:07:51;10.90;1.00
23783;DHT22;12071;50.850;4.446;2023-11-21T06:10:20;11.20;1.00
23783;DHT22;12071;50.850;4.446;2023-11-21T06:12:46;11.30;1.00
23783;DHT22;12071;50.850;4.446;2023-11-21T06:15:12;11.10;1.00
23783;DHT22;12071;50.850;4.446;2023-11-21T06:17:39;10.90;1.00
23783;DHT22;12071;50.850;4.446;2023-11-21T06:20:07;10.90;1.00
23783;DHT22;12071;50.850;4.446;2023-11-21T06:22:41;10.90;1.00
23783;DHT22;12071;50.850;4.446;2023-11-21T06:25:08;10.80;1.00
23783;DHT22;12071;50.850;4.446;2023-11-21T06:27:40;11.10;1.00
23783;DHT22;12071;50.850;4.446;2023-11-21T06:30:06;11.00;1.00
23783;DHT22;12071;50.850;4.446;2023-11-21T06:32:32;11.00;1.00
23783;DHT22;12071;50.850;4.446;2023-11-21T06:34:58;11.10;1.00
23783;DHT22;12071;50.850;4.446;2023-11-21T06:37:28;11.30;1.00
23783;DHT22;12071;50.850;4.446;2023-11-21T06:39:54;11.30;1.00
23783;DHT22;12071;50.850;4.446;2023-11-21T06:42:20;11.40;1.00
23783;DHT22;12071;50.850;4.446;2023-11-21T06:44:46;11.40;1.00
23783;DHT22;12071;50.850;4.446;2023-11-21T06:47:12;11.30;1.00
23783;DHT22;12071;50.850;4.446;2023-11-21T06:49:38;11.20;1.00
23783;DHT22;12071;50.850;4.446;2023-11-21T06:52:04;11.20;1.00
23783;DHT22;12071;50.850;4.446;2023-11-21T06:54:31;11.10;1.00
23783;DHT22;12071;50.850;4.446;2023-11-21T06:56:57;11.10;1.00
23783;DHT22;12071;50.850;4.446;2023-11-21T06:59:23;11.10;1.00
23783;DHT22;12071;50.850;4.446;2023-11-21T07:01:49;11.10;1.00
23783;DHT22;12071;50.850;4.446;2023-11-21T07:04:15;11.10;1.00
23783;DHT22;12071;50.850;4.446;2023-11-21T07:06:41;11.10;1.00
23783;DHT22;12071;50.850;4.446;2023-11-21T07:09:07;11.00;1.00
23783;DHT22;12071;50.850;4.446;2023-11-21T07:11:34;11.10;1.00
23783;DHT22;12071;50.850;4.446;2023-11-21T07:14:00;11.50;1.00
23783;DHT22;12071;50.850;4.446;2023-11-21T07:16:33;11.60;1.00
23783;DHT22;12071;50.850;4.446;2023-11-21T07:19:00;11.40;1.00
23783;DHT22;12071;50.850;4.446;2023-11-21T07:21:25;11.30;1.00
23783;DHT22;12071;50.850;4.446;2023-11-21T07:23:51;11.30;1.00
23783;DHT22;12071;50.850;4.446;2023-11-21T07:26:17;11.30;1.00
23783;DHT22;12071;50.850;4.446;2023-11-21T07:28:43;11.30;1.00
23783;DHT22;12071;50.850;4.446;2023-11-21T07:31:08;11.20;1.00
23783;DHT22;12071;50.850;4.446;2023-11-21T07:33:34;11.10;1.00
23783;DHT22;12071;50.850;4.446;2023-11-21T07:35:59;11.40;1.00
23783;DHT22;12071;50.850;4.446;2023-11-21T07:38:26;11.50;1.00
23783;DHT22;12071;50.850;4.446;2023-11-21T07:40:53;11.40;1.00
23783;DHT22;12071;50.850;4.446;2023-11-21T07:43:19;11.10;1.00
23783;DHT22;12071;50.850;4.446;2023-11-21T07:45:45;11.00;1.00
23783;DHT22;12071;50.850;4.446;2023-11-21T07:48:10;11.00;1.00
23783;DHT22;12071;50.850;4.446;2023-11-21T07:50:36;11.00;1.00
23783;DHT22;12071;50.850;4.446;2023-11-21T07:53:01;11.10;1.00
23783;DHT22;12071;50.850;4.446;2023-11-21T07:55:31;11.10;1.00
23783;DHT22;12071;50.850;4.446;2023-11-21T07:57:57;11.00;1.00
23783;DHT22;12071;50.850;4.446;2023-11-21T08:00:23;11.10;1.00
23783;DHT22;12071;50.850;4.446;2023-11-21T08:02:49;11.00;1.00
23783;DHT22;12071;50.850;4.446;2023-11-21T08:05:16;11.10;1.00
23783;DHT22;12071;50.850;4.446;2023-11-21T08:07:41;11.10;1.00
23783;DHT22;12071;50.850;4.446;2023-11-21T08:10:08;11.40;1.00
23783;DHT22;12071;50.850;4.446;2023-11-21T08:12:35;11.50;1.00
23783;DHT22;12071;50.850;4.446;2023-11-21T08:15:01;11.50;1.00
23783;DHT22;12071;50.850;4.446;2023-11-21T08:17:28;11.60;1.00
23783;DHT22;12071;50.850;4.446;2023-11-21T08:19:55;11.60;1.00
23783;DHT22;12071;50.850;4.446;2023-11-21T08:22:20;11.60;1.00
23783;DHT22;12071;50.850;4.446;2023-11-21T08:24:46;11.50;1.00
23783;DHT22;12071;50.850;4.446;2023-11-21T08:27:13;11.50;1.00
23783;DHT22;12071;50.850;4.446;2023-11-21T08:29:41;11.50;1.00
23783;DHT22;12071;50.850;4.446;2023-11-21T08:32:07;11.40;1.00
23783;DHT22;12071;50.850;4.446;2023-11-21T08:34:33;11.20;1.00
23783;DHT22;12071;50.850;4.446;2023-11-21T08:36:58;11.20;1.00
23783;DHT22;12071;50.850;4.446;2023-11-21T08:39:24;11.00;1.00
23783;DHT22;12071;50.850;4.446;2023-11-21T08:41:50;11.00;1.00
23783;DHT22;12071;50.850;4.446;2023-11-21T08:44:16;11.10;1.00
23783;DHT22;12071;50.850;4.446;2023-11-21T08:46:44;11.00;1.00
23783;DHT22;12071;50.850;4.446;2023-11-21T08:49:11;10.80;1.00
23783;DHT22;12071;50.850;4.446;2023-11-21T08:51:38;10.90;4.30
23783;DHT22;12071;50.850;4.446;2023-11-21T08:54:05;10.80;4.90
23783;DHT22;12071;50.850;4.446;2023-11-21T08:56:34;10.80;7.70
23783;DHT22;12071;50.850;4.446;2023-11-21T08:59:00;10.80;9.50
23783;DHT22;12071;50.850;4.446;2023-11-21T09:01:28;10.90;10.00
23783;DHT22;12071;50.850;4.446;2023-11-21T09:03:54;10.90;12.00
23783;DHT22;12071;50.850;4.446;2023-11-21T09:06:20;11.20;13.30
23783;DHT22;12071;50.850;4.446;2023-11-21T09:08:46;11.10;8.30
23783;DHT22;12071;50.850;4.446;2023-11-21T09:11:12;11.10;7.80
23783;DHT22;12071;50.850;4.446;2023-11-21T09:13:39;11.20;7.90
23783;DHT22;12071;50.850;4.446;2023-11-21T09:16:05;11.10;5.10
23783;DHT22;12071;50.850;4.446;2023-11-21T09:18:31;11.20;8.60
23783;DHT22;12071;50.850;4.446;2023-11-21T09:20:56;11.50;7.80
23783;DHT22;12071;50.850;4.446;2023-11-21T09:23:22;11.50;2.20
23783;DHT22;12071;50.850;4.446;2023-11-21T09:25:48;11.40;1.00
23783;DHT22;12071;50.850;4.446;2023-11-21T09:28:16;11.40;1.00
23783;DHT22;12071;50.850;4.446;2023-11-21T09:30:43;11.30;1.00
23783;DHT22;12071;50.850;4.446;2023-11-21T09:33:09;11.30;1.00
23783;DHT22;12071;50.850;4.446;2023-11-21T09:35:37;11.30;3.20
23783;DHT22;12071;50.850;4.446;2023-11-21T09:38:04;11.30;6.30
23783;DHT22;12071;50.850;4.446;2023-11-21T09:40:35;11.20;4.80
23783;DHT22;12071;50.850;4.446;2023-11-21T09:43:06;11.00;10.40
23783;DHT22;12071;50.850;4.446;2023-11-21T09:45:35;11.20;15.40
23783;DHT22;12071;50.850;4.446;2023-11-21T09:48:01;11.30;15.60
23783;DHT22;12071;50.850;4.446;2023-11-21T09:50:28;11.50;14.90
23783;DHT22;12071;50.850;4.446;2023-11-21T09:53:13;11.50;10.40
23783;DHT22;12071;50.850;4.446;2023-11-21T09:55:43;11.40;9.20
23783;DHT22;12071;50.850;4.446;2023-11-21T09:58:10;11.40;8.30
23783;DHT22;12071;50.850;4.446;2023-11-21T10:00:44;11.50;9.20
23783;DHT22;12071;50.850;4.446;2023-11-21T10:03:10;11.40;6.90
23783;DHT22;12071;50.850;4.446;2023-11-21T10:05:37;11.30;6.40
23783;DHT22;12071;50.850;4.446;2023-11-21T10:08:10;11.20;8.30
23783;DHT22;12071;50.850;4.446;2023-11-21T10:10:37;11.10;12.50
23783;DHT22;12071;50.850;4.446;2023-11-21T10:13:05;11.00;16.30
23783;DHT22;12071;50.850;4.446;2023-11-21T10:15:34;11.00;19.30
23783;DHT22;12071;50.850;4.446;2023-11-21T10:18:05;10.90;21.60
23783;DHT22;12071;50.850;4.446;2023-11-21T10:20:32;10.80;22.70
23783;DHT22;12071;50.850;4.446;2023-11-21T10:23:03;10.70;25.20
23783;DHT22;12071;50.850;4.446;2023-11-21T10:25:32;10.70;28.30
23783;DHT22;12071;50.850;4.446;2023-11-21T10:27:59;10.70;29.20
23783;DHT22;12071;50.850;4.446;2023-11-21T10:30:34;10.80;30.60
23783;DHT22;12071;50.850;4.446;2023-11-21T10:33:04;10.90;31.10
23783;DHT22;12071;50.850;4.446;2023-11-21T10:35:46;11.10;30.70
23783;DHT22;12071;50.850;4.446;2023-11-21T10:38:21;11.40;29.70
23783;DHT22;12071;50.850;4.446;2023-11-21T10:40:49;11.50;22.10
23783;DHT22;12071;50.850;4.446;2023-11-21T10:43:15;11.50;17.00
23783;DHT22;12071;50.850;4.446;2023-11-21T10:45:41;11.60;15.00
23783;DHT22;12071;50.850;4.446;2023-11-21T10:48:14;11.50;9.40
23783;DHT22;12071;50.850;4.446;2023-11-21T10:50:46;11.50;6.50
23783;DHT22;12071;50.850;4.446;2023-11-21T10:53:12;11.50;4.30
23783;DHT22;12071;50.850;4.446;2023-11-21T10:55:38;11.50;1.00
23783;DHT22;12071;50.850;4.446;2023-11-21T10:58:05;11.60;1.00
23783;DHT22;12071;50.850;4.446;2023-11-21T11:00:33;11.70;1.00
23783;DHT22;12071;50.850;4.446;2023-11-21T11:02:59;11.80;1.00
23783;DHT22;12071;50.850;4.446;2023-11-21T11:05:29;11.70;1.00
23783;DHT22;12071;50.850;4.446;2023-11-21T11:08:00;11.80;1.00
23783;DHT22;12071;50.850;4.446;2023-11-21T11:10:28;12.00;1.00
23783;DHT22;12071;50.850;4.446;2023-11-21T11:12:58;12.00;1.00
23783;DHT22;12071;50.850;4.446;2023-11-21T11:15:24;12.00;1.00
23783;DHT22;12071;50.850;4.446;2023-11-21T11:17:50;12.30;1.00
23783;DHT22;12071;50.850;4.446;2023-11-21T11:20:17;12.20;1.00
23783;DHT22;12071;50.850;4.446;2023-11-21T11:22:52;12.20;1.00
23783;DHT22;12071;50.850;4.446;2023-11-21T11:25:25;12.20;1.00
23783;DHT22;12071;50.850;4.446;2023-11-21T11:28:11;12.00;1.00
23783;DHT22;12071;50.850;4.446;2023-11-21T11:33:39;12.00;1.00
23783;DHT22;12071;50.850;4.446;2023-11-21T11:36:17;12.00;1.00
23783;DHT22;12071;50.850;4.446;2023-11-21T11:38:47;12.00;1.00
23783;DHT22;12071;50.850;4.446;2023-11-21T11:41:33;12.00;1.00
23783;DHT22;12071;50.850;4.446;2023-11-21T11:44:00;11.80;1.00
23783;DHT22;12071;50.850;4.446;2023-11-21T11:46:43;12.10;1.00
23783;DHT22;12071;50.850;4.446;2023-11-21T11:49:23;12.30;1.00
23783;DHT22;12071;50.850;4.446;2023-11-21T11:54:55;12.90;1.00
23783;DHT22;12071;50.850;4.446;2023-11-21T11:57:24;12.60;1.00
23783;DHT22;12071;50.850;4.446;2023-11-21T12:00:18;12.30;1.00
23783;DHT22;12071;50.850;4.446;2023-11-21T12:03:09;12.20;1.00
23783;DHT22;12071;50.850;4.446;2023-11-21T12:05:36;12.10;1.00
23783;DHT22;12071;50.850;4.446;2023-11-21T12:08:05;12.10;1.00
23783;DHT22;12071;50.850;4.446;2023-11-21T12:10:34;12.00;1.00
23783;DHT22;12071;50.850;4.446;2023-11-21T12:13:02;12.00;1.00
23783;DHT22;12071;50.850;4.446;2023-11-21T12:15:28;11.80;1.00
23783;DHT22;12071;50.850;4.446;2023-11-21T12:17:57;11.60;1.00
23783;DHT22;12071;50.850;4.446;2023-11-21T12:20:25;11.50;1.00
23783;DHT22;12071;50.850;4.446;2023-11-21T12:22:53;11.50;6.70
23783;DHT22;12071;50.850;4.446;2023-11-21T12:25:21;11.60;10.50
23783;DHT22;12071;50.850;4.446;2023-11-21T12:27:49;11.60;12.50
23783;DHT22;12071;50.850;4.446;2023-11-21T12:30:16;11.60;12.70
23783;DHT22;12071;50.850;4.446;2023-11-21T12:32:48;11.60;13.00
23783;DHT22;12071;50.850;4.446;2023-11-21T12:35:14;11.60;14.20
23783;DHT22;12071;50.850;4.446;2023-11-21T12:37:41;11.70;13.90
23783;DHT22;12071;50.850;4.446;2023-11-21T12:40:10;11.80;12.90
23783;DHT22;12071;50.850;4.446;2023-11-21T12:42:51;12.00;13.20
23783;DHT22;12071;50.850;4.446;2023-11-21T12:45:21;12.10;8.90
23783;DHT22;12071;50.850;4.446;2023-11-21T12:47:49;12.20;4.50
23783;DHT22;12071;50.850;4.446;2023-11-21T12:50:21;12.40;4.10
23783;DHT22;12071;50.850;4.446;2023-11-21T12:52:52;12.50;1.00
23783;DHT22;12071;50.850;4.446;2023-11-21T12:55:23;12.70;1.00
23783;DHT22;12071;50.850;4.446;2023-11-21T12:57:51;12.70;1.00
23783;DHT22;12071;50.850;4.446;2023-11-21T13:00:18;12.60;1.00
23783;DHT22;12071;50.850;4.446;2023-11-21T13:02:57;12.40;1.00
23783;DHT22;12071;50.850;4.446;2023-11-21T13:05:32;12.30;1.00
23783;DHT22;12071;50.850;4.446;2023-11-21T13:08:00;12.30;1.00
23783;DHT22;12071;50.850;4.446;2023-11-21T13:10:29;12.30;1.00
23783;DHT22;12071;50.850;4.446;2023-11-21T13:12:59;12.30;1.00
23783;DHT22;12071;50.850;4.446;2023-11-21T13:15:29;12.50;1.00
23783;DHT22;12071;50.850;4.446;2023-11-21T13:17:57;12.30;1.00
23783;DHT22;12071;50.850;4.446;2023-11-21T13:20:24;12.30;1.00
23783;DHT22;12071;50.850;4.446;2023-11-21T13:22:51;12.40;1.00
23783;DHT22;12071;50.850;4.446;2023-11-21T13:25:23;12.50;1.00
23783;DHT22;12071;50.850;4.446;2023-11-21T13:27:49;12.60;1.00
23783;DHT22;12071;50.850;4.446;2023-11-21T13:30:16;12.40;1.00
23783;DHT22;12071;50.850;4.446;2023-11-21T13:32:44;12.40;1.00
23783;DHT22;12071;50.850;4.446;2023-11-21T13:35:11;12.30;1.00
23783;DHT22;12071;50.850;4.446;2023-11-21T13:37:50;12.20;1.00
23783;DHT22;12071;50.850;4.446;2023-11-21T13:40:21;12.00;1.00
23783;DHT22;12071;50.850;4.446;2023-11-21T13:42:55;12.10;1.00
23783;DHT22;12071;50.850;4.446;2023-11-21T13:45:24;12.20;1.30
23783;DHT22;12071;50.850;4.446;2023-11-21T13:47:52;12.30;1.00
23783;DHT22;12071;50.850;4.446;2023-11-21T13:50:26;12.30;1.00
23783;DHT22;12071;50.850;4.446;2023-11-21T13:52:59;12.40;1.00
23783;DHT22;12071;50.850;4.446;2023-11-21T13:55:30;12.50;1.00
23783;DHT22;12071;50.850;4.446;2023-11-21T13:57:55;12.50;1.00
23783;DHT22;12071;50.850;4.446;2023-11-21T14:00:21;12.50;1.00
23783;DHT22;12071;50.850;4.446;2023-11-21T14:03:05;12.50;1.00
23783;DHT22;12071;50.850;4.446;2023-11-21T14:05:36;12.30;1.00
23783;DHT22;12071;50.850;4.446;2023-11-21T14:08:02;12.30;1.00
23783;DHT22;12071;50.850;4.446;2023-11-21T14:10:31;12.20;1.00
23783;DHT22;12071;50.850;4.446;2023-11-21T14:13:06;12.40;1.00
23783;DHT22;12071;50.850;4.446;2023-11-21T14:15:32;12.30;1.00
23783;DHT22;12071;50.850;4.446;2023-11-21T14:18:02;12.30;1.00
23783;DHT22;12071;50.850;4.446;2023-11-21T14:20:33;12.40;1.00
23783;DHT22;12071;50.850;4.446;2023-11-21T14:23:01;12.40;1.00
23783;DHT22;12071;50.850;4.446;2023-11-21T14:25:27;12.30;1.00
23783;DHT22;12071;50.850;4.446;2023-11-21T14:27:53;12.20;1.00
23783;DHT22;12071;50.850;4.446;2023-11-21T14:30:19;12.10;1.00
23783;DHT22;12071;50.850;4.446;2023-11-21T14:32:48;12.20;1.00
23783;DHT22;12071;50.850;4.446;2023-11-21T14:35:15;12.20;1.00
23783;DHT22;12071;50.850;4.446;2023-11-21T14:37:40;12.00;1.00
23783;DHT22;12071;50.850;4.446;2023-11-21T14:40:06;12.00;1.00
23783;DHT22;12071;50.850;4.446;2023-11-21T14:42:33;11.90;1.00
23783;DHT22;12071;50.850;4.446;2023-11-21T14:45:00;12.00;1.00
23783;DHT22;12071;50.850;4.446;2023-11-21T14:47:25;12.10;1.00
23783;DHT22;12071;50.850;4.446;2023-11-21T14:49:52;12.10;1.00
23783;DHT22;12071;50.850;4.446;2023-11-21T14:52:21;12.10;1.00
23783;DHT22;12071;50.850;4.446;2023-11-21T14:54:58;12.00;1.00
23783;DHT22;12071;50.850;4.446;2023-11-21T14:57:56;11.80;1.00
23783;DHT22;12071;50.850;4.446;2023-11-21T15:00:21;11.60;1.00
23783;DHT22;12071;50.850;4.446;2023-11-21T15:03:17;11.60;7.40
23783;DHT22;12071;50.850;4.446;2023-11-21T15:06:02;11.70;8.40
23783;DHT22;12071;50.850;4.446;2023-11-21T15:08:55;11.70;10.60
23783;DHT22;12071;50.850;4.446;2023-11-21T15:11:41;11.80;9.50
23783;DHT22;12071;50.850;4.446;2023-11-21T15:14:07;11.70;8.70
23783;DHT22;12071;50.850;4.446;2023-11-21T15:16:37;11.60;6.70
23783;DHT22;12071;50.850;4.446;2023-11-21T15:19:06;11.80;10.40
23783;DHT22;12071;50.850;4.446;2023-11-21T15:21:31;11.90;7.00
23783;DHT22;12071;50.850;4.446;2023-11-21T15:23:58;11.80;3.10
23783;DHT22;12071;50.850;4.446;2023-11-21T15:26:24;11.90;4.20
23783;DHT22;12071;50.850;4.446;2023-11-21T15:28:49;11.80;1.40
23783;DHT22;12071;50.850;4.446;2023-11-21T15:31:15;11.80;1.70
23783;DHT22;12071;50.850;4.446;2023-11-21T15:33:45;11.80;1.40
23783;DHT22;12071;50.850;4.446;2023-11-21T15:36:11;11.80;1.00
23783;DHT22;12071;50.850;4.446;2023-11-21T15:38:38;11.60;1.80
23783;DHT22;12071;50.850;4.446;2023-11-21T15:41:04;11.60;3.80
23783;DHT22;12071;50.850;4.446;2023-11-21T15:43:32;11.60;9.90
23783;DHT22;12071;50.850;4.446;2023-11-21T15:45:58;11.90;8.00
23783;DHT22;12071;50.850;4.446;2023-11-21T15:48:23;11.90;1.20
23783;DHT22;12071;50.850;4.446;2023-11-21T15:50:49;11.80;1.20
23783;DHT22;12071;50.850;4.446;2023-11-21T15:53:17;11.60;1.00
23783;DHT22;12071;50.850;4.446;2023-11-21T15:55:43;11.60;4.00